Time;durP1;ratioP1;P1;durP2;ratioP2;P2;SDS_P1;SDS_P2;PMS_P1;PMS_P2;Temp;Humidity;BMP_temperature;BMP_pressure;BME280_temperature;BME280_humidity;BME280_pressure;Samples;Min_cycle;Max_cycle;Signal;HPM_P1;HPM_P2
2022/03/06 00:02:50;;;;;;;15.88;10.07;;;;;;;-1.10;100.00;102529.34;10193176;29;20065;-87
2022/03/06 00:07:50;;;;;;;13.88;8.88;;;;;;;-1.81;100.00;102391.59;10209250;29;20113;-88
2022/03/06 00:12:51;;;;;;;12.57;7.53;;;;;;;-1.00;100.00;102504.22;10208148;29;20035;-87
2022/03/06 00:17:52;;;;;;;16.35;8.57;;;;;;;-1.11;100.00;102487.09;10224122;29;20436;-87
2022/03/06 00:22:52;;;;;;;14.98;7.65;;;;;;;-0.42;100.00;102578.19;10193228;29;20082;-87
2022/03/06 00:27:53;;;;;;;11.57;7.47;;;;;;;-0.65;100.00;102528.91;10223777;29;20035;-87
2022/03/06 00:32:54;;;;;;;12.93;7.65;;;;;;;-1.08;100.00;102467.91;10208017;29;20082;-88
2022/03/06 00:37:56;;;;;;;12.30;7.63;;;;;;;-0.89;100.00;102509.50;10224061;29;20030;-87
2022/03/06 00:42:57;;;;;;;11.05;7.13;;;;;;;-0.94;100.00;102498.25;10206993;28;20051;-87
2022/03/06 00:47:57;;;;;;;10.15;6.43;;;;;;;-1.10;100.00;102469.88;10222394;29;20031;-87
2022/03/06 00:52:58;;;;;;;9.98;6.07;;;;;;;-0.67;100.00;102521.94;10206713;29;20031;-87
2022/03/06 00:58:05;;;;;;;10.93;7.03;;;;;;;-0.56;100.00;102539.88;10207666;29;20416;-87
2022/03/06 01:03:09;;;;;;;13.02;6.45;;;;;;;-0.38;100.00;102562.53;10207492;29;20110;-87
2022/03/06 01:08:09;;;;;;;8.68;6.05;;;;;;;-0.93;100.00;102475.59;10189523;29;20043;-87
2022/03/06 01:13:10;;;;;;;12.82;7.07;;;;;;;-0.15;100.00;102575.81;10189081;29;20031;-87
2022/03/06 01:18:11;;;;;;;13.52;6.88;;;;;;;-0.82;100.00;102483.63;10204966;29;20034;-88
2022/03/06 01:23:11;;;;;;;14.82;5.95;;;;;;;-0.99;100.00;102454.53;10220647;29;20034;-87
2022/03/06 01:28:12;;;;;;;10.70;6.85;;;;;;;-0.75;100.00;102486.59;10163364;29;20032;-88
2022/03/06 01:33:13;;;;;;;12.65;6.40;;;;;;;-0.27;100.00;102578.66;10172892;29;20031;-86
2022/03/06 01:38:14;;;;;;;9.35;5.82;;;;;;;-0.89;100.00;102486.03;10188705;29;20054;-87
2022/03/06 01:43:15;;;;;;;10.68;5.88;;;;;;;-1.08;100.00;102454.38;10164149;29;20546;-87
2022/03/06 01:48:15;;;;;;;9.95;5.32;;;;;;;-0.90;100.00;102473.50;10164764;29;20027;-87
2022/03/06 01:53:16;;;;;;;9.30;5.60;;;;;;;-0.84;100.00;102488.31;10163952;29;20533;-87
2022/03/06 01:58:16;;;;;;;7.97;5.50;;;;;;;-0.41;100.00;102543.91;10202778;29;20126;-87
2022/03/06 02:03:18;;;;;;;11.77;6.50;;;;;;;-0.61;100.00;102551.13;10219634;29;20034;-88
2022/03/06 02:08:18;;;;;;;7.78;4.88;;;;;;;0.07;100.00;102637.81;10203121;29;20024;-87
2022/03/06 02:13:19;;;;;;;8.43;5.30;;;;;;;-0.50;100.00;102550.13;10200985;28;20019;-88
2022/03/06 02:18:19;;;;;;;9.10;5.28;;;;;;;-1.07;100.00;102453.41;10217422;28;20050;-88
2022/03/06 02:23:20;;;;;;;8.63;5.28;;;;;;;-0.44;100.00;102541.47;10218314;29;20530;-88
2022/03/06 02:28:20;;;;;;;9.48;5.68;;;;;;;-0.49;100.00;102524.81;10217300;29;20071;-88
2022/03/06 02:33:21;;;;;;;8.18;4.78;;;;;;;-0.92;100.00;102458.41;10218817;29;20031;-87
2022/03/06 02:38:22;;;;;;;10.93;5.40;;;;;;;-0.05;100.00;102611.88;10178320;29;20015;-88
2022/03/06 02:43:23;;;;;;;9.23;5.50;;;;;;;-0.62;100.00;102481.78;10226830;29;20570;-88
2022/03/06 02:48:24;;;;;;;7.40;5.03;;;;;;;-0.48;100.00;102504.84;10202961;29;20114;-88
2022/03/06 02:53:25;;;;;;;9.30;5.00;;;;;;;-0.63;100.00;102482.78;10202950;29;20030;-88
2022/03/06 02:58:25;;;;;;;6.65;4.47;;;;;;;-0.24;100.00;102539.63;10177374;29;20063;-88
2022/03/06 03:03:26;;;;;;;8.98;5.60;;;;;;;-0.03;100.00;102574.69;10195966;29;20023;-88
2022/03/06 03:08:27;;;;;;;8.38;4.68;;;;;;;-0.41;100.00;102522.25;10236645;28;20448;-87
2022/03/06 03:13:27;;;;;;;8.20;5.35;;;;;;;-0.31;100.00;102561.00;10200898;29;20060;-87
2022/03/06 03:18:29;;;;;;;6.82;4.25;;;;;;;-0.77;100.00;102481.34;10185464;29;20071;-87
2022/03/06 03:23:29;;;;;;;9.70;4.60;;;;;;;-0.43;100.00;102556.72;10229409;29;20062;-87
2022/03/06 03:28:30;;;;;;;8.63;4.97;;;;;;;-0.80;100.00;102510.53;10193502;29;20062;-88
2022/03/06 03:33:30;;;;;;;7.60;4.70;;;;;;;-1.17;100.00;102503.03;10192449;29;20023;-88
2022/03/06 03:38:31;;;;;;;11.98;5.15;;;;;;;-0.87;100.00;102578.69;10222932;29;20471;-87
2022/03/06 03:43:31;;;;;;;9.07;4.93;;;;;;;-1.45;100.00;102495.53;10206924;29;20058;-87
2022/03/06 03:48:32;;;;;;;11.88;5.03;;;;;;;-1.52;100.00;102499.75;10208252;29;20031;-88
2022/03/06 03:53:32;;;;;;;10.07;4.57;;;;;;;-1.45;100.00;102530.66;10182718;29;20035;-87
2022/03/06 03:58:33;;;;;;;6.30;4.00;;;;;;;-1.35;100.00;102564.94;10184421;29;20066;-88
2022/03/06 04:03:34;;;;;;;8.77;4.55;;;;;;;-1.69;100.00;102520.13;10192416;29;20035;-87
2022/03/06 04:08:34;;;;;;;8.25;4.35;;;;;;;-1.58;100.00;102545.34;10207236;29;20062;-87
2022/03/06 04:13:35;;;;;;;9.77;4.90;;;;;;;-1.94;100.00;102494.41;10189530;29;20399;-87
2022/03/06 04:18:35;;;;;;;7.35;4.53;;;;;;;-1.94;100.00;102502.50;10205523;28;20506;-88
2022/03/06 04:23:36;;;;;;;8.27;4.32;;;;;;;-1.77;100.00;102567.69;10207294;29;20483;-88
2022/03/06 04:28:37;;;;;;;8.18;4.20;;;;;;;-1.91;100.00;102542.72;10189119;29;20043;-88
2022/03/06 04:33:37;;;;;;;8.57;5.20;;;;;;;-1.37;100.00;102637.16;10206813;29;20114;-88
2022/03/06 04:38:39;;;;;;;9.68;4.38;;;;;;;-1.86;100.00;102586.38;10181909;29;20063;-88
2022/03/06 04:43:39;;;;;;;9.80;4.88;;;;;;;-1.91;100.00;102575.09;10182546;29;20086;-87
2022/03/06 04:48:40;;;;;;;10.05;5.53;;;;;;;-2.07;100.00;102555.81;10195641;29;20132;-88
2022/03/06 04:53:40;;;;;;;9.85;4.30;;;;;;;-2.64;100.00;102468.88;10197775;29;20045;-87
2022/03/06 04:58:41;;;;;;;11.20;4.57;;;;;;;-2.21;100.00;102569.59;10205001;29;20494;-88
2022/03/06 05:03:42;;;;;;;14.98;4.50;;;;;;;-2.44;100.00;102523.81;10205594;29;20031;-88
2022/03/06 05:08:42;;;;;;;5.95;3.60;;;;;;;-2.53;100.00;102530.00;10188673;29;20035;-87
2022/03/06 05:13:45;;;;;;;8.80;3.90;;;;;;;-2.22;100.00;102570.59;10204366;29;20463;-88
2022/03/06 05:18:48;;;;;;;9.40;5.15;;;;;;;-2.11;100.00;102616.41;10203191;29;20035;-87
2022/03/06 05:23:49;;;;;;;7.50;3.88;;;;;;;-2.60;100.00;102528.78;10205320;29;20030;-87
2022/03/06 05:28:49;;;;;;;9.60;3.67;;;;;;;-2.26;100.00;102583.47;10219387;29;20030;-88
2022/03/06 05:33:50;;;;;;;9.55;3.92;;;;;;;-2.98;100.00;102489.66;10202231;29;20035;-88
2022/03/06 05:38:51;;;;;;;7.63;4.25;;;;;;;-2.32;100.00;102578.59;10204835;29;20098;-89
2022/03/06 05:43:51;;;;;;;6.63;4.03;;;;;;;-1.85;100.00;102677.19;10179562;29;20075;-88
2022/03/06 05:48:52;;;;;;;8.65;3.83;;;;;;;-2.48;100.00;102587.09;10181414;29;20035;-87
2022/03/06 05:53:52;;;;;;;9.32;4.03;;;;;;;-1.86;100.00;102712.38;10203619;29;20085;-88
2022/03/06 05:58:53;;;;;;;8.10;3.22;;;;;;;-2.68;100.00;102608.47;10235035;29;20046;-87
2022/03/06 06:03:53;;;;;;;8.15;3.55;;;;;;;-2.51;100.00;102622.41;10217568;29;20027;-87
2022/03/06 06:08:54;;;;;;;5.93;3.03;;;;;;;-2.63;100.00;102618.88;10219231;29;20028;-87
2022/03/06 06:13:55;;;;;;;4.93;3.67;;;;;;;-2.41;100.00;102661.13;10201396;29;20126;-87
2022/03/06 06:18:55;;;;;;;9.88;4.63;;;;;;;-2.82;100.00;102589.84;10218548;29;20035;-86
2022/03/06 06:23:56;;;;;;;5.40;3.08;;;;;;;-2.70;100.00;102631.16;10185602;29;20027;-88
2022/03/06 06:28:56;;;;;;;4.97;3.60;;;;;;;-2.50;100.00;102675.34;10202964;29;20027;-88
2022/03/06 06:33:57;;;;;;;4.93;3.37;;;;;;;-2.67;100.00;102637.16;10219041;29;20070;-87
2022/03/06 06:38:58;;;;;;;7.30;3.97;;;;;;;-2.72;100.00;102620.47;10181558;29;20063;-88
2022/03/06 06:43:58;;;;;;;5.63;3.38;;;;;;;-2.41;100.00;102701.59;10173081;29;20070;-87
2022/03/06 06:48:59;;;;;;;6.53;2.80;;;;;;;-1.89;100.00;102731.56;10193937;29;20031;-88
2022/03/06 06:54:00;;;;;;;9.63;3.15;;;;;;;-2.31;100.00;102664.81;10194369;29;20026;-87
2022/03/06 06:59:00;;;;;;;3.47;2.50;;;;;;;-2.25;100.00;102672.41;10210533;29;20034;-88
2022/03/06 07:04:01;;;;;;;6.47;2.90;;;;;;;-1.68;100.00;102726.22;10194010;29;20361;-87
2022/03/06 07:09:02;;;;;;;5.88;2.08;;;;;;;-1.66;100.00;102714.28;10225327;29;20055;-87
2022/03/06 07:14:02;;;;;;;8.90;2.63;;;;;;;-0.83;100.00;102809.09;10201335;29;20047;-87
2022/03/06 07:19:03;;;;;;;4.03;2.40;;;;;;;-0.96;100.00;102771.44;10206309;29;20031;-87
2022/03/06 07:24:05;;;;;;;7.95;2.30;;;;;;;-1.08;100.00;102730.09;10209289;29;20587;-88
2022/03/06 07:29:06;;;;;;;4.15;2.00;;;;;;;-1.29;100.00;102688.72;10193602;29;20027;-86
2022/03/06 07:34:07;;;;;;;3.45;2.17;;;;;;;-1.16;100.00;102704.72;10200065;29;20498;-88
2022/03/06 07:39:07;;;;;;;9.95;2.60;;;;;;;-0.78;100.00;102752.78;10223414;29;20074;-88
2022/03/06 07:44:08;;;;;;;4.53;2.80;;;;;;;-0.72;100.00;102752.25;10193035;29;20427;-88
2022/03/06 07:49:10;;;;;;;10.43;3.38;;;;;;;-1.48;100.00;102633.53;10192530;29;20135;-87
2022/03/06 07:54:14;;;;;;;3.72;2.47;;;;;;;-0.67;100.00;102744.56;10196327;28;20023;-87
2022/03/06 07:59:14;;;;;;;3.42;1.73;;;;;;;-0.83;100.00;102718.03;10248465;28;20392;-87
2022/03/06 08:04:15;;;;;;;7.63;2.45;;;;;;;-0.93;100.00;102672.97;10248358;28;20039;-88
2022/03/06 08:09:15;;;;;;;4.78;2.10;;;;;;;-0.97;100.00;102653.50;10178229;29;20036;-88
2022/03/06 08:14:16;;;;;;;3.55;2.20;;;;;;;-0.51;100.00;102722.44;10168366;29;20035;-88
2022/03/06 08:19:16;;;;;;;5.50;2.00;;;;;;;-0.43;100.00;102705.53;10189853;29;20073;-88
2022/03/06 08:24:17;;;;;;;3.03;2.03;;;;;;;-0.11;100.00;102728.84;10191246;29;20038;-88
2022/03/06 08:29:18;;;;;;;6.95;1.85;;;;;;;-0.36;100.00;102676.06;10206656;29;20071;-88
2022/03/06 08:34:18;;;;;;;3.05;2.10;;;;;;;0.01;100.00;102726.91;10190599;29;20045;-87
2022/03/06 08:39:19;;;;;;;5.00;2.60;;;;;;;0.14;100.00;102708.50;10222399;29;20392;-89
2022/03/06 08:44:19;;;;;;;5.07;2.90;;;;;;;0.25;100.00;102693.97;10190252;29;20559;-89
2022/03/06 08:49:20;;;;;;;3.40;1.70;;;;;;;0.65;100.00;102741.78;10188128;29;20185;-88
2022/03/06 08:54:21;;;;;;;3.08;1.85;;;;;;;0.53;100.00;102703.97;10180993;29;20031;-87
2022/03/06 08:59:21;;;;;;;3.15;2.17;;;;;;;0.85;100.00;102758.88;10188393;29;20502;-86
2022/03/06 09:04:23;;;;;;;4.03;2.22;;;;;;;0.65;100.00;102709.25;10179427;29;20032;-87
2022/03/06 09:09:23;;;;;;;1.73;1.50;;;;;;;0.65;100.00;102687.56;10206107;29;20035;-87
2022/03/06 09:14:24;;;;;;;4.90;2.83;;;;;;;0.96;100.00;102716.19;10200327;29;20567;-87
2022/03/06 09:19:24;;;;;;;4.85;1.88;;;;;;;0.73;100.00;102664.16;10200464;28;20027;-87
2022/03/06 09:24:27;;;;;;;5.38;2.28;;;;;;;0.86;100.00;102636.72;10187512;29;20081;-89
2022/03/06 09:29:27;;;;;;;6.20;1.92;;;;;;;1.54;100.00;102760.47;10174367;29;20035;-88
2022/03/06 09:34:28;;;;;;;5.97;1.70;;;;;;;1.15;100.00;102646.63;10185939;29;20106;-87
2022/03/06 09:39:28;;;;;;;3.42;1.80;;;;;;;1.62;99.77;102660.13;10182954;29;20508;-86
2022/03/06 09:44:30;;;;;;;4.10;2.00;;;;;;;1.96;99.03;102689.34;10217151;29;20075;-90
2022/03/06 09:49:31;;;;;;;3.15;1.40;;;;;;;2.06;96.36;102698.31;10176785;29;20055;-89
2022/03/06 09:54:31;;;;;;;3.38;1.52;;;;;;;2.15;96.46;102667.50;10191762;29;20047;-85
2022/03/06 09:59:32;;;;;;;3.83;1.50;;;;;;;3.06;94.90;102758.03;10197150;29;20429;-89
2022/03/06 10:04:34;;;;;;;3.03;1.70;;;;;;;2.90;92.48;102731.56;10198440;29;20052;-88
2022/03/06 10:09:54;;;;;;;4.25;1.45;;;;;;;2.40;92.55;102597.06;10198857;29;20027;-87
2022/03/06 10:15:05;;;;;;;3.60;1.70;;;;;;;2.99;91.92;102663.41;10232294;28;20027;-87
2022/03/06 10:20:09;;;;;;;5.03;1.83;;;;;;;3.55;88.98;102722.94;10193244;28;20027;-88
2022/03/06 10:25:16;;;;;;;2.65;1.83;;;;;;;3.50;89.09;102677.16;10248430;28;20022;-88
2022/03/06 10:30:39;;;;;;;3.53;1.50;;;;;;;4.45;86.98;102810.53;10248338;28;20027;-87
2022/03/06 10:35:40;;;;;;;4.05;1.50;;;;;;;3.99;88.43;102740.00;10278982;28;20110;-89
2022/03/06 10:40:41;;;;;;;7.85;2.45;;;;;;;4.37;86.98;102769.59;10271351;28;20014;-88
2022/03/06 10:45:41;;;;;;;3.08;1.50;;;;;;;4.63;86.84;102775.78;10249094;28;20105;-88
2022/03/06 10:50:42;;;;;;;2.50;1.65;;;;;;;4.56;85.69;102724.78;10219624;28;20067;-88
2022/03/06 10:55:43;;;;;;;4.40;1.67;;;;;;;4.42;84.28;102677.22;10262639;28;20015;-88
2022/03/06 11:00:43;;;;;;;3.78;2.03;;;;;;;4.80;84.21;102727.53;10229902;28;20387;-87
2022/03/06 11:05:45;;;;;;;3.80;1.60;;;;;;;4.98;83.94;102707.38;10257783;28;20022;-88
2022/03/06 11:10:46;;;;;;;3.42;1.95;;;;;;;5.59;82.78;102732.38;10259045;28;20496;-87
2022/03/06 11:15:46;;;;;;;4.68;1.70;;;;;;;5.42;82.15;102675.03;10238118;28;20163;-86
2022/03/06 11:20:47;;;;;;;3.90;1.75;;;;;;;6.03;79.28;102740.91;10247966;28;20018;-87
2022/03/06 11:26:09;;;;;;;3.00;1.73;;;;;;;6.43;79.88;102749.09;10248401;28;20092;-87
2022/03/06 11:31:10;;;;;;;3.40;2.05;;;;;;;6.20;78.92;102632.31;10273526;28;20109;-86
2022/03/06 11:36:19;;;;;;;3.13;1.77;;;;;;;6.82;76.02;102748.09;10209066;29;20035;-87
2022/03/06 11:41:20;;;;;;;4.47;1.65;;;;;;;6.43;75.62;102751.84;10233556;29;20060;-86
2022/03/06 11:46:21;;;;;;;2.22;1.83;;;;;;;6.19;77.43;102722.72;10186075;29;20385;-87
2022/03/06 11:51:22;;;;;;;6.40;2.00;;;;;;;7.31;76.40;102776.97;10204131;29;20038;-87
2022/03/06 11:56:34;;;;;;;5.32;2.00;;;;;;;7.48;74.86;102727.28;10211825;29;20036;-87
2022/03/06 12:01:36;;;;;;;3.03;1.70;;;;;;;7.25;74.73;102652.53;10226520;29;20476;-87
2022/03/06 12:07:01;;;;;;;5.35;2.22;;;;;;;7.56;73.16;102764.69;10180797;29;20035;-87
2022/03/06 12:12:08;;;;;;;4.30;2.50;;;;;;;6.61;75.64;102633.84;10185399;29;20032;-87
2022/03/06 12:17:12;;;;;;;4.90;2.13;;;;;;;7.41;73.79;102679.75;10185914;29;20310;-87
2022/03/06 12:22:14;;;;;;;3.90;1.67;;;;;;;6.45;73.99;102567.28;10240429;28;20047;-86
2022/03/06 12:27:23;;;;;;;4.20;1.83;;;;;;;6.68;74.66;102648.50;10209493;29;20440;-88
2022/03/06 12:32:31;;;;;;;6.25;2.28;;;;;;;7.76;77.37;102747.72;10192020;29;20032;-88
2022/03/06 12:37:38;;;;;;;3.78;1.90;;;;;;;9.14;72.23;102727.50;10239606;29;20045;-87
2022/03/06 12:42:39;;;;;;;3.88;2.13;;;;;;;9.57;67.48;102565.13;10230644;28;20056;-88
2022/03/06 12:47:41;;;;;;;3.67;1.83;;;;;;;9.24;67.96;102587.84;10202630;29;20086;-88
2022/03/06 12:52:41;;;;;;;6.55;2.00;;;;;;;11.03;64.92;102613.97;10209015;29;20023;-88
2022/03/06 12:57:44;;;;;;;3.67;1.75;;;;;;;10.26;62.87;102613.53;10221419;29;20029;-90
2022/03/06 13:02:54;;;;;;;4.18;2.05;;;;;;;9.25;67.81;102624.41;10222954;29;20423;-89
2022/03/06 13:07:55;;;;;;;4.95;2.20;;;;;;;10.45;65.50;102644.09;10223427;29;20074;-88
2022/03/06 13:12:57;;;;;;;4.15;2.10;;;;;;;8.96;66.16;102565.88;10221373;29;20069;-88
2022/03/06 13:18:07;;;;;;;6.10;2.50;;;;;;;8.81;68.11;102647.56;10206130;29;20079;-87
2022/03/06 13:23:17;;;;;;;5.53;2.08;;;;;;;8.49;71.59;102707.44;10222108;29;20391;-87
2022/03/06 13:28:17;;;;;;;3.58;1.85;;;;;;;7.61;72.03;102581.34;10198669;29;20028;-87
2022/03/06 13:33:19;;;;;;;6.15;2.45;;;;;;;8.13;73.04;102705.56;10182310;29;20110;-87
2022/03/06 13:38:24;;;;;;;3.50;1.85;;;;;;;8.88;72.64;102631.97;10221362;29;20450;-87
2022/03/06 13:43:47;;;;;;;11.88;2.40;;;;;;;10.08;68.19;102566.50;10221734;29;20086;-87
2022/03/06 13:48:48;;;;;;;6.25;2.35;;;;;;;8.95;69.21;102539.50;10213808;29;20040;-89
2022/03/06 13:53:59;;;;;;;6.25;2.53;;;;;;;8.96;70.73;102535.69;10190090;29;20522;-87
2022/03/06 13:59:01;;;;;;;4.63;2.03;;;;;;;10.87;67.05;102651.09;10192709;29;20118;-87
2022/03/06 14:04:03;;;;;;;3.47;2.10;;;;;;;9.05;66.87;102594.91;10218171;29;20035;-88
2022/03/06 14:09:23;;;;;;;87.18;41.08;;;;;;;8.83;69.50;102661.94;10168704;29;20447;-88
2022/03/06 14:14:37;;;;;;;3.80;1.60;;;;;;;8.53;69.26;102650.28;10207086;29;20472;-88
2022/03/06 14:19:37;;;;;;;2.90;2.00;;;;;;;8.53;70.42;102618.16;10203563;29;20038;-88
2022/03/06 14:24:38;;;;;;;4.53;2.42;;;;;;;7.81;70.39;102526.75;10250226;28;20045;-88
2022/03/06 14:29:40;;;;;;;3.65;1.95;;;;;;;7.99;72.46;102610.44;10221069;28;20074;-87
2022/03/06 14:34:40;;;;;;;4.65;2.22;;;;;;;6.69;71.97;102465.97;10254763;28;20018;-88
2022/03/06 14:39:41;;;;;;;5.65;2.67;;;;;;;8.78;72.63;102675.41;10257273;28;20019;-88
2022/03/06 14:44:42;;;;;;;5.30;2.35;;;;;;;7.94;71.21;102526.03;10206457;29;20086;-87
2022/03/06 14:49:42;;;;;;;5.47;2.58;;;;;;;7.41;73.52;102482.44;10221240;29;20497;-88
2022/03/06 14:54:44;;;;;;;4.38;2.50;;;;;;;8.27;72.63;102613.28;10169682;29;20034;-88
2022/03/06 14:59:44;;;;;;;11.43;3.10;;;;;;;8.01;75.09;102657.72;10209703;29;20036;-87
2022/03/06 15:04:45;;;;;;;5.55;2.83;;;;;;;7.17;75.09;102568.59;10193789;29;20537;-88
2022/03/06 15:09:45;;;;;;;6.70;2.55;;;;;;;7.56;76.17;102627.66;10215136;29;20126;-87
2022/03/06 15:14:46;;;;;;;4.65;2.42;;;;;;;7.40;77.32;102644.31;10178405;29;20114;-87
2022/03/06 15:19:46;;;;;;;6.68;2.30;;;;;;;6.97;77.25;102605.78;10196055;29;20036;-87
2022/03/06 15:24:47;;;;;;;5.70;2.50;;;;;;;6.78;79.18;102594.34;10188727;29;20031;-89
2022/03/06 15:29:47;;;;;;;5.47;2.65;;;;;;;7.27;79.39;102647.72;10192022;29;20640;-88
2022/03/06 15:34:48;;;;;;;4.30;2.35;;;;;;;6.92;79.78;102636.44;10178965;29;20476;-87
2022/03/06 15:39:48;;;;;;;5.68;2.17;;;;;;;5.93;80.34;102548.88;10172654;29;20052;-85
2022/03/06 15:44:49;;;;;;;5.05;2.85;;;;;;;5.96;83.66;102569.59;10186698;29;20513;-89
2022/03/06 15:49:49;;;;;;;6.82;2.95;;;;;;;5.95;82.83;102639.78;10225592;28;20485;-87
2022/03/06 15:54:50;;;;;;;5.47;2.70;;;;;;;5.78;86.27;102655.41;10212573;29;20062;-89
2022/03/06 15:59:50;;;;;;;5.22;2.83;;;;;;;5.10;89.26;102563.19;10174518;29;20031;-88
2022/03/06 16:04:51;;;;;;;5.72;2.55;;;;;;;5.88;89.32;102681.69;10192693;29;20036;-88
2022/03/06 16:09:51;;;;;;;5.88;2.55;;;;;;;4.61;89.75;102509.63;10169402;29;20060;-88
2022/03/06 16:14:52;;;;;;;7.60;2.80;;;;;;;5.21;91.64;102677.50;10178139;29;20099;-87
2022/03/06 16:19:52;;;;;;;5.30;2.38;;;;;;;4.74;93.49;102631.88;10193073;29;20481;-88
2022/03/06 16:24:53;;;;;;;7.38;2.58;;;;;;;4.45;94.85;102619.63;10195696;29;20078;-88
2022/03/06 16:29:57;;;;;;;6.93;2.70;;;;;;;4.38;99.16;102626.75;10177371;29;20392;-87
2022/03/06 16:34:58;;;;;;;8.32;3.05;;;;;;;4.02;100.00;102553.50;10166016;29;20043;-87
2022/03/06 16:39:58;;;;;;;9.27;4.18;;;;;;;4.10;100.00;102566.28;10177362;29;20114;-88
2022/03/06 16:44:59;;;;;;;8.38;2.95;;;;;;;4.33;100.00;102629.16;10180445;29;20489;-88
2022/03/06 16:50:01;;;;;;;6.03;2.78;;;;;;;4.19;100.00;102657.94;10191476;29;20036;-88
2022/03/06 16:55:02;;;;;;;7.20;2.22;;;;;;;3.37;100.00;102571.41;10161831;29;20028;-88
2022/03/06 17:00:07;;;;;;;4.50;2.63;;;;;;;3.52;100.00;102647.03;10185491;29;20035;-87
2022/03/06 17:05:08;;;;;;;6.50;3.80;;;;;;;3.68;100.00;102697.97;10180795;29;20035;-89
2022/03/06 17:10:09;;;;;;;8.35;3.10;;;;;;;3.34;100.00;102652.56;10181979;29;20028;-87
2022/03/06 17:15:10;;;;;;;10.73;4.60;;;;;;;2.68;100.00;102564.28;10180859;29;20090;-88
2022/03/06 17:20:11;;;;;;;8.38;4.18;;;;;;;3.20;100.00;102687.56;10156129;29;20059;-89
2022/03/06 17:25:12;;;;;;;4.93;3.00;;;;;;;2.55;100.00;102613.66;10180582;29;20111;-88
2022/03/06 17:30:13;;;;;;;8.68;3.97;;;;;;;2.12;100.00;102564.56;10156815;29;20119;-88
2022/03/06 17:35:13;;;;;;;8.43;3.45;;;;;;;2.34;100.00;102633.03;10170887;29;20025;-87
2022/03/06 17:40:14;;;;;;;6.45;3.85;;;;;;;2.38;100.00;102667.03;10174731;29;20048;-88
2022/03/06 17:45:14;;;;;;;8.45;4.07;;;;;;;2.47;100.00;102693.28;10155248;29;20047;-88
2022/03/06 17:50:15;;;;;;;6.07;3.25;;;;;;;2.22;100.00;102656.88;10155687;29;20044;-86
2022/03/06 17:55:15;;;;;;;7.85;3.22;;;;;;;2.30;100.00;102686.84;10171492;29;20040;-87
2022/03/06 18:00:16;;;;;;;7.85;3.25;;;;;;;2.49;100.00;102702.13;10162910;29;20499;-88
2022/03/06 18:05:17;;;;;;;6.28;3.38;;;;;;;2.25;100.00;102683.72;10172108;29;20032;-88
2022/03/06 18:10:17;;;;;;;7.75;3.60;;;;;;;1.99;100.00;102649.16;10154062;29;20036;-88
2022/03/06 18:15:18;;;;;;;8.68;3.22;;;;;;;2.32;100.00;102711.16;10139263;29;20063;-88
2022/03/06 18:20:18;;;;;;;7.35;3.67;;;;;;;2.43;100.00;102729.94;10162595;29;20024;-88
2022/03/06 18:25:19;;;;;;;5.60;2.80;;;;;;;1.77;100.00;102647.72;10160374;29;20090;-87
2022/03/06 18:30:19;;;;;;;7.53;3.42;;;;;;;2.10;100.00;102690.72;10174574;29;20027;-89
2022/03/06 18:35:20;;;;;;;7.72;3.20;;;;;;;2.32;100.00;102706.56;10136608;29;20027;-86
2022/03/06 18:40:21;;;;;;;5.28;2.53;;;;;;;2.52;100.00;102734.47;10183397;29;20031;-88
2022/03/06 18:45:21;;;;;;;6.18;3.55;;;;;;;2.04;100.00;102659.56;10214728;28;20055;-88
2022/03/06 18:50:22;;;;;;;11.85;3.30;;;;;;;1.37;100.00;102570.25;10234010;28;20115;-87
2022/03/06 18:55:22;;;;;;;6.25;3.75;;;;;;;2.15;100.00;102721.84;10257108;28;20122;-87
2022/03/06 19:00:23;;;;;;;9.15;3.83;;;;;;;1.70;100.00;102614.06;10225332;28;20041;-88
2022/03/06 19:05:23;;;;;;;10.68;4.30;;;;;;;1.97;100.00;102667.47;10242827;28;20130;-87
2022/03/06 19:10:24;;;;;;;7.25;4.13;;;;;;;2.18;100.00;102686.22;10226644;28;20175;-87
2022/03/06 19:15:24;;;;;;;9.60;3.65;;;;;;;2.30;100.00;102702.31;10213945;28;20050;-88
2022/03/06 19:20:25;;;;;;;6.40;3.33;;;;;;;2.00;100.00;102674.47;10211089;28;20089;-86
2022/03/06 19:25:27;;;;;;;9.07;3.60;;;;;;;1.87;100.00;102649.56;10232362;28;20034;-88
2022/03/06 19:30:28;;;;;;;6.40;3.30;;;;;;;1.66;100.00;102595.53;10210000;28;20031;-87
2022/03/06 19:35:28;;;;;;;5.70;3.00;;;;;;;2.09;100.00;102662.69;10182219;29;20067;-87
2022/03/06 19:40:29;;;;;;;8.43;3.42;;;;;;;1.99;100.00;102668.19;10185135;29;20028;-89
2022/03/06 19:45:29;;;;;;;7.45;4.07;;;;;;;2.11;100.00;102670.66;10153928;29;20063;-87
2022/03/06 19:50:30;;;;;;;11.73;4.22;;;;;;;2.10;100.00;102668.97;10153235;29;20039;-88
2022/03/06 19:55:30;;;;;;;7.32;4.10;;;;;;;2.63;100.00;102766.84;10169131;29;20480;-87
2022/03/06 20:00:31;;;;;;;7.15;3.22;;;;;;;1.70;100.00;102646.66;10216410;29;20032;-88
2022/03/06 20:05:31;;;;;;;7.93;4.20;;;;;;;2.05;100.00;102712.91;10153479;29;20039;-87
2022/03/06 20:10:32;;;;;;;8.57;4.15;;;;;;;1.73;100.00;102689.78;10184397;29;20632;-88
2022/03/06 20:15:34;;;;;;;13.73;5.50;;;;;;;1.37;100.00;102629.97;10238987;28;20030;-88
2022/03/06 20:20:34;;;;;;;13.50;5.50;;;;;;;1.63;100.00;102694.41;10252365;28;20054;-88
2022/03/06 20:25:35;;;;;;;12.25;6.32;;;;;;;1.37;100.00;102726.81;10260181;28;20066;-89
2022/03/06 20:30:36;;;;;;;8.82;4.82;;;;;;;0.56;100.00;102635.94;10232971;28;20058;-88
2022/03/06 20:35:37;;;;;;;8.80;5.57;;;;;;;0.95;100.00;102732.63;10262570;28;20026;-88
2022/03/06 20:40:37;;;;;;;8.77;5.75;;;;;;;0.15;100.00;102647.94;10245971;28;20030;-88
2022/03/06 20:45:38;;;;;;;8.63;5.63;;;;;;;0.28;100.00;102712.69;10225002;28;20458;-89
2022/03/06 20:50:39;;;;;;;9.32;5.95;;;;;;;-0.37;100.00;102625.63;10205419;29;20098;-87
2022/03/06 20:55:40;;;;;;;12.73;6.70;;;;;;;-0.75;100.00;102616.44;10205721;29;20491;-88
2022/03/06 21:00:40;;;;;;;10.75;6.38;;;;;;;-0.37;100.00;102712.22;10205239;28;20031;-89
2022/03/06 21:05:41;;;;;;;15.70;7.53;;;;;;;-0.55;100.00;102720.16;10190157;29;20121;-87
2022/03/06 21:10:42;;;;;;;15.63;7.72;;;;;;;-0.36;100.00;102758.13;10189989;29;20023;-87
2022/03/06 21:15:45;;;;;;;14.10;8.93;;;;;;;-0.75;100.00;102722.75;10221436;29;20027;-87
2022/03/06 21:20:46;;;;;;;15.60;8.80;;;;;;;-0.84;100.00;102727.13;10234986;28;20386;-87
2022/03/06 21:25:47;;;;;;;13.95;8.43;;;;;;;-1.18;100.00;102677.81;10241334;28;20133;-87
2022/03/06 21:30:48;;;;;;;20.42;9.18;;;;;;;-0.61;100.00;102781.06;10258552;28;20039;-88
2022/03/06 21:35:48;;;;;;;14.82;8.52;;;;;;;-1.56;100.00;102664.91;10244401;28;20126;-87
2022/03/06 21:40:49;;;;;;;13.25;8.23;;;;;;;-0.65;100.00;102823.75;10260164;28;20110;-87
2022/03/06 21:45:49;;;;;;;18.95;10.13;;;;;;;-1.49;100.00;102693.97;10243681;28;20133;-87
2022/03/06 21:50:50;;;;;;;16.00;10.00;;;;;;;-1.42;100.00;102700.56;10260182;28;20035;-88
2022/03/06 21:55:51;;;;;;;19.45;10.77;;;;;;;-0.94;100.00;102782.97;10228149;28;20118;-88
2022/03/06 22:00:51;;;;;;;18.10;10.25;;;;;;;-0.90;100.00;102808.78;10259591;28;20467;-88
2022/03/06 22:05:52;;;;;;;19.85;10.52;;;;;;;-1.88;100.00;102650.44;10259375;28;20023;-88
2022/03/06 22:10:55;;;;;;;20.40;10.00;;;;;;;-1.96;100.00;102669.13;10228361;28;20015;-87
2022/03/06 22:15:56;;;;;;;16.33;10.43;;;;;;;-2.11;100.00;102632.59;10238175;28;20026;-88
2022/03/06 22:20:56;;;;;;;17.33;9.82;;;;;;;-1.57;100.00;102744.22;10216006;29;20513;-88
2022/03/06 22:25:57;;;;;;;14.60;9.20;;;;;;;-2.27;100.00;102633.88;10232576;29;20019;-89
2022/03/06 22:30:57;;;;;;;23.58;11.05;;;;;;;-1.42;100.00;102783.47;10216673;28;20183;-88
2022/03/06 22:35:58;;;;;;;18.00;11.43;;;;;;;-1.69;100.00;102744.28;10232239;28;20035;-88
2022/03/06 22:40:59;;;;;;;18.35;11.88;;;;;;;-2.15;100.00;102674.31;10216419;29;20055;-87
2022/03/06 22:46:00;;;;;;;26.75;12.70;;;;;;;-2.63;100.00;102632.34;10216289;28;20368;-87
2022/03/06 22:51:00;;;;;;;21.05;12.50;;;;;;;-1.93;100.00;102751.69;10200650;29;20383;-87
2022/03/06 22:56:01;;;;;;;21.20;12.25;;;;;;;-1.93;100.00;102743.59;10216354;28;20127;-87
2022/03/06 23:01:21;;;;;;;21.42;11.88;;;;;;;-2.13;100.00;102713.72;10216028;28;20074;-87